sensor_id;sensor_type;location;lat;lon;timestamp;pressure;altitude;pressure_sealevel;temperature;humidity
26563;BME280;14217;50.986;5.826;2022-08-19T00:04:01;100714.41;;;29.13;40.44
26563;BME280;14217;50.986;5.826;2022-08-19T00:09:05;100723.81;;;29.18;40.59
26563;BME280;14217;50.986;5.826;2022-08-19T00:14:08;100722.38;;;29.14;40.68
26563;BME280;14217;50.986;5.826;2022-08-19T00:19:11;100714.41;;;29.13;40.68
26563;BME280;14217;50.986;5.826;2022-08-19T00:24:14;100715.97;;;29.15;40.64
26563;BME280;14217;50.986;5.826;2022-08-19T00:29:19;100718.25;;;29.10;40.64
26563;BME280;14217;50.986;5.826;2022-08-19T00:34:22;100711.88;;;29.21;40.55
26563;BME280;14217;50.986;5.826;2022-08-19T00:39:25;100706.31;;;29.13;40.93
26563;BME280;14217;50.986;5.826;2022-08-19T00:44:28;100706.47;;;29.11;40.56
26563;BME280;14217;50.986;5.826;2022-08-19T00:49:34;100711.16;;;29.19;40.59
26563;BME280;14217;50.986;5.826;2022-08-19T00:54:38;100712.72;;;29.12;40.68
26563;BME280;14217;50.986;5.826;2022-08-19T00:59:44;100699.78;;;29.06;40.68
26563;BME280;14217;50.986;5.826;2022-08-19T01:05:05;100705.19;;;29.15;40.56
26563;BME280;14217;50.986;5.826;2022-08-19T01:10:12;100703.50;;;29.14;40.44
26563;BME280;14217;50.986;5.826;2022-08-19T01:15:18;100720.97;;;29.10;40.50
26563;BME280;14217;50.986;5.826;2022-08-19T01:20:22;100719.09;;;29.11;40.47
26563;BME280;14217;50.986;5.826;2022-08-19T01:25:31;100725.75;;;29.07;40.57
26563;BME280;14217;50.986;5.826;2022-08-19T01:30:35;100713.09;;;29.07;40.56
26563;BME280;14217;50.986;5.826;2022-08-19T01:35:37;100718.25;;;29.10;40.57
26563;BME280;14217;50.986;5.826;2022-08-19T01:40:39;100724.38;;;29.12;40.40
26563;BME280;14217;50.986;5.826;2022-08-19T01:45:41;100729.88;;;29.01;40.72
26563;BME280;14217;50.986;5.826;2022-08-19T01:50:44;100730.72;;;29.02;40.48
26563;BME280;14217;50.986;5.826;2022-08-19T01:55:46;100734.44;;;29.10;40.51
26563;BME280;14217;50.986;5.826;2022-08-19T02:00:50;100739.09;;;29.08;40.63
26563;BME280;14217;50.986;5.826;2022-08-19T02:06:00;100730.72;;;29.02;40.57
26563;BME280;14217;50.986;5.826;2022-08-19T02:11:05;100727.88;;;29.03;40.56
26563;BME280;14217;50.986;5.826;2022-08-19T02:16:07;100735.25;;;29.01;40.67
26563;BME280;14217;50.986;5.826;2022-08-19T02:21:09;100737.63;;;28.94;40.71
26563;BME280;14217;50.986;5.826;2022-08-19T02:26:13;100740.78;;;28.99;40.42
26563;BME280;14217;50.986;5.826;2022-08-19T02:31:17;100750.88;;;28.97;40.71
26563;BME280;14217;50.986;5.826;2022-08-19T02:36:20;100739.22;;;29.07;40.43
26563;BME280;14217;50.986;5.826;2022-08-19T02:41:27;100729.56;;;29.04;40.40
26563;BME280;14217;50.986;5.826;2022-08-19T02:46:32;100738.09;;;28.99;40.52
26563;BME280;14217;50.986;5.826;2022-08-19T02:51:40;100733.53;;;29.00;40.56
26563;BME280;14217;50.986;5.826;2022-08-19T02:56:43;100740.06;;;28.97;40.89
26563;BME280;14217;50.986;5.826;2022-08-19T03:01:45;100737.25;;;28.99;40.75
26563;BME280;14217;50.986;5.826;2022-08-19T03:06:47;100738.22;;;28.98;40.79
26563;BME280;14217;50.986;5.826;2022-08-19T03:11:49;100744.22;;;29.02;40.60
26563;BME280;14217;50.986;5.826;2022-08-19T03:16:53;100749.44;;;28.93;40.60
26563;BME280;14217;50.986;5.826;2022-08-19T03:21:55;100750.88;;;28.97;40.75
26563;BME280;14217;50.986;5.826;2022-08-19T03:26:57;100753.44;;;28.99;40.61
26563;BME280;14217;50.986;5.826;2022-08-19T03:32:02;100751.00;;;28.96;40.75
26563;BME280;14217;50.986;5.826;2022-08-19T03:37:09;100755.53;;;28.95;40.74
26563;BME280;14217;50.986;5.826;2022-08-19T03:42:13;100766.75;;;29.01;40.66
26563;BME280;14217;50.986;5.826;2022-08-19T03:47:35;100761.91;;;28.94;40.71
26563;BME280;14217;50.986;5.826;2022-08-19T03:52:38;100758.66;;;28.91;40.76
26563;BME280;14217;50.986;5.826;2022-08-19T03:57:46;100764.06;;;29.01;40.30
26563;BME280;14217;50.986;5.826;2022-08-19T04:02:49;100758.13;;;28.97;40.32
26563;BME280;14217;50.986;5.826;2022-08-19T04:08:01;100752.25;;;28.92;40.38
26563;BME280;14217;50.986;5.826;2022-08-19T04:13:04;100762.91;;;28.93;40.48
26563;BME280;14217;50.986;5.826;2022-08-19T04:18:08;100767.88;;;28.88;40.53
26563;BME280;14217;50.986;5.826;2022-08-19T04:23:12;100761.06;;;28.84;40.48
26563;BME280;14217;50.986;5.826;2022-08-19T04:28:15;100753.94;;;28.83;40.62
26563;BME280;14217;50.986;5.826;2022-08-19T04:33:23;100750.41;;;28.92;40.18
26563;BME280;14217;50.986;5.826;2022-08-19T04:38:29;100748.00;;;28.89;40.43
26563;BME280;14217;50.986;5.826;2022-08-19T04:43:32;100758.38;;;28.84;40.51
26563;BME280;14217;50.986;5.826;2022-08-19T04:48:35;100771.00;;;28.93;40.10
26563;BME280;14217;50.986;5.826;2022-08-19T04:53:44;100768.75;;;28.89;40.34
26563;BME280;14217;50.986;5.826;2022-08-19T04:58:49;100776.38;;;28.84;40.48
26563;BME280;14217;50.986;5.826;2022-08-19T05:03:53;100772.56;;;28.86;40.25
26563;BME280;14217;50.986;5.826;2022-08-19T05:08:55;100776.97;;;28.87;40.13
26563;BME280;14217;50.986;5.826;2022-08-19T05:13:57;100786.59;;;28.80;40.58
26563;BME280;14217;50.986;5.826;2022-08-19T05:19:00;100795.25;;;28.84;40.43
26563;BME280;14217;50.986;5.826;2022-08-19T05:24:23;100796.13;;;28.84;40.28
26563;BME280;14217;50.986;5.826;2022-08-19T05:29:27;100803.50;;;28.92;40.11
26563;BME280;14217;50.986;5.826;2022-08-19T05:34:37;100799.38;;;28.78;40.24
26563;BME280;14217;50.986;5.826;2022-08-19T05:39:39;100793.44;;;28.84;40.42
26563;BME280;14217;50.986;5.826;2022-08-19T05:44:43;100794.28;;;28.85;40.38
26563;BME280;14217;50.986;5.826;2022-08-19T05:49:47;100802.06;;;28.88;40.07
26563;BME280;14217;50.986;5.826;2022-08-19T05:54:51;100807.63;;;28.86;40.08
26563;BME280;14217;50.986;5.826;2022-08-19T05:59:53;100796.25;;;28.83;40.03
26563;BME280;14217;50.986;5.826;2022-08-19T06:04:59;100803.63;;;28.81;40.47
26563;BME280;14217;50.986;5.826;2022-08-19T06:10:02;100813.16;;;28.94;40.13
26563;BME280;14217;50.986;5.826;2022-08-19T06:15:10;100812.44;;;28.92;40.24
26563;BME280;14217;50.986;5.826;2022-08-19T06:20:14;100806.56;;;28.77;40.85
26563;BME280;14217;50.986;5.826;2022-08-19T06:25:16;100809.78;;;28.62;41.56
26563;BME280;14217;50.986;5.826;2022-08-19T06:30:19;100815.44;;;28.58;41.88
26563;BME280;14217;50.986;5.826;2022-08-19T06:35:21;100819.88;;;28.60;42.64
26563;BME280;14217;50.986;5.826;2022-08-19T06:40:23;100825.06;;;28.51;42.72
26563;BME280;14217;50.986;5.826;2022-08-19T06:45:25;100827.22;;;28.57;42.17
26563;BME280;14217;50.986;5.826;2022-08-19T06:50:36;100821.53;;;28.51;42.72
26563;BME280;14217;50.986;5.826;2022-08-19T06:55:41;100827.88;;;28.50;42.84
26563;BME280;14217;50.986;5.826;2022-08-19T07:00:43;100832.53;;;28.48;42.79
26563;BME280;14217;50.986;5.826;2022-08-19T07:05:45;100834.66;;;28.44;43.36
26563;BME280;14217;50.986;5.826;2022-08-19T07:10:47;100839.31;;;28.42;43.21
26563;BME280;14217;50.986;5.826;2022-08-19T07:15:50;100836.16;;;28.37;42.53
26563;BME280;14217;50.986;5.826;2022-08-19T07:21:09;100845.63;;;28.52;42.61
26563;BME280;14217;50.986;5.826;2022-08-19T07:26:25;100849.94;;;28.65;42.07
26563;BME280;14217;50.986;5.826;2022-08-19T07:31:28;100837.28;;;28.55;42.68
26563;BME280;14217;50.986;5.826;2022-08-19T07:36:32;100843.72;;;28.64;42.20
26563;BME280;14217;50.986;5.826;2022-08-19T07:41:35;100838.63;;;28.71;41.98
26563;BME280;14217;50.986;5.826;2022-08-19T07:46:40;100851.81;;;28.64;42.70
26563;BME280;14217;50.986;5.826;2022-08-19T07:51:49;100862.91;;;28.71;42.13
26563;BME280;14217;50.986;5.826;2022-08-19T07:56:51;100865.59;;;28.71;42.09
26563;BME280;14217;50.986;5.826;2022-08-19T08:01:54;100867.44;;;28.70;41.96
26563;BME280;14217;50.986;5.826;2022-08-19T08:06:57;100865.47;;;28.72;41.73
26563;BME280;14217;50.986;5.826;2022-08-19T08:12:24;100870.56;;;28.75;41.63
26563;BME280;14217;50.986;5.826;2022-08-19T08:17:39;100877.81;;;28.75;41.94
26563;BME280;14217;50.986;5.826;2022-08-19T08:22:50;100872.53;;;28.64;41.39
26563;BME280;14217;50.986;5.826;2022-08-19T08:28:11;100877.91;;;28.64;41.30
26563;BME280;14217;50.986;5.826;2022-08-19T08:33:22;100873.13;;;28.67;40.93
26563;BME280;14217;50.986;5.826;2022-08-19T08:38:36;100880.78;;;28.72;41.14
26563;BME280;14217;50.986;5.826;2022-08-19T08:43:44;100887.78;;;28.53;41.45
26563;BME280;14217;50.986;5.826;2022-08-19T08:48:57;100885.38;;;28.81;40.58
26563;BME280;14217;50.986;5.826;2022-08-19T08:54:04;100886.16;;;28.93;40.50
26563;BME280;14217;50.986;5.826;2022-08-19T08:59:20;100888.84;;;29.03;40.32
26563;BME280;14217;50.986;5.826;2022-08-19T09:04:23;100887.59;;;29.07;40.15
26563;BME280;14217;50.986;5.826;2022-08-19T09:14:53;100890.06;;;29.10;40.04
26563;BME280;14217;50.986;5.826;2022-08-19T09:20:01;100886.88;;;29.05;40.10
26563;BME280;14217;50.986;5.826;2022-08-19T09:25:12;100890.16;;;29.08;40.19
26563;BME280;14217;50.986;5.826;2022-08-19T09:30:17;100892.03;;;29.08;40.19
26563;BME280;14217;50.986;5.826;2022-08-19T09:35:22;100892.03;;;29.08;40.28
26563;BME280;14217;50.986;5.826;2022-08-19T09:40:28;100886.75;;;29.06;40.10
26563;BME280;14217;50.986;5.826;2022-08-19T09:45:32;100886.13;;;29.14;40.00
26563;BME280;14217;50.986;5.826;2022-08-19T09:50:34;100880.22;;;29.09;40.07
26563;BME280;14217;50.986;5.826;2022-08-19T09:55:55;100885.09;;;29.15;40.39
26563;BME280;14217;50.986;5.826;2022-08-19T10:00:59;100887.66;;;28.86;41.03
26563;BME280;14217;50.986;5.826;2022-08-19T10:06:03;100892.25;;;28.95;40.58
26563;BME280;14217;50.986;5.826;2022-08-19T10:11:15;100885.19;;;28.73;40.98
26563;BME280;14217;50.986;5.826;2022-08-19T10:16:37;100881.81;;;28.81;40.88
26563;BME280;14217;50.986;5.826;2022-08-19T10:21:40;100869.38;;;28.89;40.81
26563;BME280;14217;50.986;5.826;2022-08-19T10:26:43;100874.00;;;28.77;41.07
26563;BME280;14217;50.986;5.826;2022-08-19T10:32:01;100874.03;;;28.87;40.73
26563;BME280;14217;50.986;5.826;2022-08-19T10:37:05;100862.41;;;28.87;40.06
26563;BME280;14217;50.986;5.826;2022-08-19T10:42:14;100860.25;;;28.81;40.75
26563;BME280;14217;50.986;5.826;2022-08-19T10:47:18;100852.75;;;28.84;40.54
26563;BME280;14217;50.986;5.826;2022-08-19T10:52:26;100852.19;;;28.90;40.81
26563;BME280;14217;50.986;5.826;2022-08-19T10:57:39;100868.22;;;28.82;40.72
26563;BME280;14217;50.986;5.826;2022-08-19T11:03:02;100858.41;;;28.81;40.60
26563;BME280;14217;50.986;5.826;2022-08-19T11:08:04;100848.47;;;28.82;40.39
26563;BME280;14217;50.986;5.826;2022-08-19T11:13:23;100857.88;;;28.87;39.81
26563;BME280;14217;50.986;5.826;2022-08-19T11:18:25;100842.69;;;28.86;40.07
26563;BME280;14217;50.986;5.826;2022-08-19T11:23:27;100845.28;;;28.97;40.04
26563;BME280;14217;50.986;5.826;2022-08-19T11:28:29;100841.41;;;28.90;39.00
26563;BME280;14217;50.986;5.826;2022-08-19T11:33:31;100832.16;;;28.83;39.36
26563;BME280;14217;50.986;5.826;2022-08-19T11:38:35;100832.44;;;28.80;39.27
26563;BME280;14217;50.986;5.826;2022-08-19T11:43:37;100828.47;;;28.84;39.33
26563;BME280;14217;50.986;5.826;2022-08-19T11:48:41;100825.38;;;28.89;37.89
26563;BME280;14217;50.986;5.826;2022-08-19T11:53:43;100827.06;;;28.90;37.91
26563;BME280;14217;50.986;5.826;2022-08-19T11:58:45;100829.22;;;28.96;38.33
26563;BME280;14217;50.986;5.826;2022-08-19T12:03:48;100824.13;;;28.93;38.14
26563;BME280;14217;50.986;5.826;2022-08-19T12:08:51;100828.97;;;28.99;38.38
26563;BME280;14217;50.986;5.826;2022-08-19T12:13:53;100817.13;;;28.90;38.25
26563;BME280;14217;50.986;5.826;2022-08-19T12:18:56;100830.94;;;28.97;37.88
26563;BME280;14217;50.986;5.826;2022-08-19T12:24:00;100818.97;;;28.90;38.00
26563;BME280;14217;50.986;5.826;2022-08-19T12:29:03;100829.22;;;28.96;37.86
26563;BME280;14217;50.986;5.826;2022-08-19T12:34:05;100816.44;;;28.98;37.50
26563;BME280;14217;50.986;5.826;2022-08-19T12:39:09;100818.88;;;29.01;37.79
26563;BME280;14217;50.986;5.826;2022-08-19T12:44:13;100817.03;;;29.02;37.85
26563;BME280;14217;50.986;5.826;2022-08-19T12:49:15;100806.66;;;28.97;37.92
26563;BME280;14217;50.986;5.826;2022-08-19T12:54:37;100806.91;;;28.94;38.11
26563;BME280;14217;50.986;5.826;2022-08-19T12:59:39;100807.09;;;29.02;38.13
26563;BME280;14217;50.986;5.826;2022-08-19T13:04:41;100791.69;;;29.14;37.65
26563;BME280;14217;50.986;5.826;2022-08-19T13:09:42;100798.34;;;29.10;37.86
26563;BME280;14217;50.986;5.826;2022-08-19T13:14:44;100794.38;;;29.14;37.85
26563;BME280;14217;50.986;5.826;2022-08-19T13:19:50;100794.63;;;29.11;38.00
26563;BME280;14217;50.986;5.826;2022-08-19T13:24:52;100791.53;;;29.15;38.29
26563;BME280;14217;50.986;5.826;2022-08-19T13:29:54;100783.88;;;29.21;39.10
26563;BME280;14217;50.986;5.826;2022-08-19T13:35:16;100783.28;;;29.17;39.83
26563;BME280;14217;50.986;5.826;2022-08-19T13:40:21;100783.53;;;29.04;40.83
26563;BME280;14217;50.986;5.826;2022-08-19T13:45:26;100776.16;;;29.06;39.87
26563;BME280;14217;50.986;5.826;2022-08-19T13:50:32;100773.78;;;29.13;39.80
26563;BME280;14217;50.986;5.826;2022-08-19T13:55:36;100776.22;;;29.16;39.97
26563;BME280;14217;50.986;5.826;2022-08-19T14:00:42;100774.91;;;29.10;40.35
26563;BME280;14217;50.986;5.826;2022-08-19T14:05:44;100785.94;;;29.07;40.54
26563;BME280;14217;50.986;5.826;2022-08-19T14:10:48;100778.47;;;29.11;40.81
26563;BME280;14217;50.986;5.826;2022-08-19T14:15:51;100783.09;;;29.09;41.46
26563;BME280;14217;50.986;5.826;2022-08-19T14:20:53;100778.72;;;29.08;41.39
26563;BME280;14217;50.986;5.826;2022-08-19T14:26:03;100784.13;;;29.08;41.15
26563;BME280;14217;50.986;5.826;2022-08-19T14:31:06;100782.16;;;29.10;41.95
26563;BME280;14217;50.986;5.826;2022-08-19T14:36:08;100765.75;;;28.92;42.50
26563;BME280;14217;50.986;5.826;2022-08-19T14:41:20;100762.38;;;29.09;41.90
26563;BME280;14217;50.986;5.826;2022-08-19T14:46:24;100764.13;;;29.10;42.42
26563;BME280;14217;50.986;5.826;2022-08-19T14:51:30;100763.56;;;29.16;42.35
26563;BME280;14217;50.986;5.826;2022-08-19T14:56:32;100772.81;;;29.14;43.36
26563;BME280;14217;50.986;5.826;2022-08-19T15:01:34;100768.81;;;29.18;43.96
26563;BME280;14217;50.986;5.826;2022-08-19T15:06:36;100765.97;;;29.19;44.10
26563;BME280;14217;50.986;5.826;2022-08-19T15:11:38;100765.41;;;29.16;43.84
26563;BME280;14217;50.986;5.826;2022-08-19T15:16:40;100778.19;;;29.14;43.80
26563;BME280;14217;50.986;5.826;2022-08-19T15:21:43;100768.38;;;29.13;42.66
26563;BME280;14217;50.986;5.826;2022-08-19T15:26:45;100778.72;;;29.08;43.01
26563;BME280;14217;50.986;5.826;2022-08-19T15:31:47;100780.41;;;29.09;43.23
26563;BME280;14217;50.986;5.826;2022-08-19T15:36:49;100795.88;;;29.07;42.64
26563;BME280;14217;50.986;5.826;2022-08-19T15:41:51;100792.03;;;29.09;42.48
26563;BME280;14217;50.986;5.826;2022-08-19T15:46:53;100793.47;;;29.04;42.66
26563;BME280;14217;50.986;5.826;2022-08-19T15:51:56;100792.94;;;29.10;42.05
26563;BME280;14217;50.986;5.826;2022-08-19T15:56:58;100798.06;;;29.13;42.01
26563;BME280;14217;50.986;5.826;2022-08-19T16:02:22;100793.97;;;29.18;41.93
26563;BME280;14217;50.986;5.826;2022-08-19T16:07:47;100800.91;;;29.21;41.64
26563;BME280;14217;50.986;5.826;2022-08-19T16:12:49;100809.03;;;29.31;41.37
26563;BME280;14217;50.986;5.826;2022-08-19T16:17:51;100803.63;;;29.21;41.44
26563;BME280;14217;50.986;5.826;2022-08-19T16:22:58;100803.19;;;29.16;42.33
26563;BME280;14217;50.986;5.826;2022-08-19T16:28:00;100804.78;;;28.88;42.71
26563;BME280;14217;50.986;5.826;2022-08-19T16:33:09;100805.47;;;28.80;42.90
26563;BME280;14217;50.986;5.826;2022-08-19T16:38:11;100811.00;;;28.88;42.51
26563;BME280;14217;50.986;5.826;2022-08-19T16:43:13;100808.66;;;28.95;42.42
26563;BME280;14217;50.986;5.826;2022-08-19T16:48:15;100807.34;;;28.89;42.95
26563;BME280;14217;50.986;5.826;2022-08-19T16:53:19;100804.47;;;28.81;43.16
26563;BME280;14217;50.986;5.826;2022-08-19T16:58:22;100805.19;;;28.83;42.89
26563;BME280;14217;50.986;5.826;2022-08-19T17:03:29;100804.66;;;28.89;42.57
26563;BME280;14217;50.986;5.826;2022-08-19T17:08:37;100802.38;;;28.85;42.49
26563;BME280;14217;50.986;5.826;2022-08-19T17:13:39;100797.53;;;28.88;42.60
26563;BME280;14217;50.986;5.826;2022-08-19T17:18:43;100807.38;;;28.99;42.54
26563;BME280;14217;50.986;5.826;2022-08-19T17:23:45;100804.69;;;29.09;42.41
26563;BME280;14217;50.986;5.826;2022-08-19T17:28:49;100791.31;;;29.07;42.24
26563;BME280;14217;50.986;5.826;2022-08-19T17:33:52;100798.78;;;29.15;42.06
26563;BME280;14217;50.986;5.826;2022-08-19T17:38:57;100797.72;;;29.06;42.46
26563;BME280;14217;50.986;5.826;2022-08-19T17:44:01;100796.88;;;29.06;42.24
26563;BME280;14217;50.986;5.826;2022-08-19T17:49:03;100795.50;;;29.11;41.98
26563;BME280;14217;50.986;5.826;2022-08-19T17:54:07;100804.59;;;29.10;41.91
26563;BME280;14217;50.986;5.826;2022-08-19T17:59:09;100818.47;;;29.06;42.20
26563;BME280;14217;50.986;5.826;2022-08-19T18:04:15;100840.03;;;29.06;42.62
26563;BME280;14217;50.986;5.826;2022-08-19T18:09:17;100875.66;;;28.99;43.60
26563;BME280;14217;50.986;5.826;2022-08-19T18:14:23;100848.47;;;29.12;44.07
26563;BME280;14217;50.986;5.826;2022-08-19T18:19:34;100856.16;;;29.17;44.33
26563;BME280;14217;50.986;5.826;2022-08-19T18:24:42;100859.38;;;29.11;45.18
26563;BME280;14217;50.986;5.826;2022-08-19T18:29:46;100860.09;;;29.13;45.52
26563;BME280;14217;50.986;5.826;2022-08-19T18:34:48;100864.78;;;29.11;45.84
26563;BME280;14217;50.986;5.826;2022-08-19T18:39:50;100866.50;;;29.12;46.20
26563;BME280;14217;50.986;5.826;2022-08-19T18:45:10;100870.28;;;29.09;46.24
26563;BME280;14217;50.986;5.826;2022-08-19T18:50:31;100879.28;;;29.10;46.72
26563;BME280;14217;50.986;5.826;2022-08-19T18:55:33;100873.13;;;29.08;47.06
26563;BME280;14217;50.986;5.826;2022-08-19T19:00:35;100874.41;;;29.04;46.30
26563;BME280;14217;50.986;5.826;2022-08-19T19:05:38;100884.38;;;29.13;46.34
26563;BME280;14217;50.986;5.826;2022-08-19T19:10:44;100880.00;;;29.12;46.20
26563;BME280;14217;50.986;5.826;2022-08-19T19:15:50;100890.06;;;29.10;46.33
26563;BME280;14217;50.986;5.826;2022-08-19T19:20:53;100889.06;;;29.11;46.26
26563;BME280;14217;50.986;5.826;2022-08-19T19:25:55;100893.63;;;29.10;46.48
26563;BME280;14217;50.986;5.826;2022-08-19T19:30:57;100894.72;;;29.08;46.46
26563;BME280;14217;50.986;5.826;2022-08-19T19:35:59;100890.91;;;29.10;46.50
26563;BME280;14217;50.986;5.826;2022-08-19T19:41:02;100903.34;;;29.02;46.85
26563;BME280;14217;50.986;5.826;2022-08-19T19:46:05;100907.03;;;29.01;46.87
26563;BME280;14217;50.986;5.826;2022-08-19T19:51:09;100912.97;;;28.94;47.04
26563;BME280;14217;50.986;5.826;2022-08-19T19:56:11;100905.47;;;28.98;46.82
26563;BME280;14217;50.986;5.826;2022-08-19T20:01:13;100912.16;;;29.04;46.68
26563;BME280;14217;50.986;5.826;2022-08-19T20:06:23;100914.69;;;28.95;46.92
26563;BME280;14217;50.986;5.826;2022-08-19T20:11:34;100917.56;;;29.04;46.78
26563;BME280;14217;50.986;5.826;2022-08-19T20:16:37;100919.41;;;29.03;46.39
26563;BME280;14217;50.986;5.826;2022-08-19T20:21:41;100915.13;;;29.01;46.36
26563;BME280;14217;50.986;5.826;2022-08-19T20:26:49;100923.31;;;28.89;45.69
26563;BME280;14217;50.986;5.826;2022-08-19T20:31:54;100922.50;;;28.98;45.46
26563;BME280;14217;50.986;5.826;2022-08-19T20:37:00;100932.63;;;29.06;45.27
26563;BME280;14217;50.986;5.826;2022-08-19T20:42:02;100934.72;;;29.03;45.35
26563;BME280;14217;50.986;5.826;2022-08-19T20:47:04;100937.16;;;29.06;45.16
26563;BME280;14217;50.986;5.826;2022-08-19T20:52:06;100931.59;;;29.07;44.98
26563;BME280;14217;50.986;5.826;2022-08-19T20:57:09;100937.00;;;29.07;44.63
26563;BME280;14217;50.986;5.826;2022-08-19T21:02:11;100932.75;;;29.05;44.75
26563;BME280;14217;50.986;5.826;2022-08-19T21:07:14;100929.53;;;29.11;44.53
26563;BME280;14217;50.986;5.826;2022-08-19T21:12:16;100928.59;;;29.01;44.67
26563;BME280;14217;50.986;5.826;2022-08-19T21:17:18;100924.66;;;29.05;44.77
26563;BME280;14217;50.986;5.826;2022-08-19T21:22:20;100919.47;;;28.82;43.33
26563;BME280;14217;50.986;5.826;2022-08-19T21:27:21;100917.38;;;28.95;44.55
26563;BME280;14217;50.986;5.826;2022-08-19T21:32:23;100910.97;;;28.87;44.70
26563;BME280;14217;50.986;5.826;2022-08-19T21:37:25;100919.47;;;28.92;44.86
26563;BME280;14217;50.986;5.826;2022-08-19T21:42:27;100927.56;;;28.92;44.47
26563;BME280;14217;50.986;5.826;2022-08-19T21:47:29;100931.47;;;28.99;44.23
26563;BME280;14217;50.986;5.826;2022-08-19T21:52:31;100935.66;;;28.92;44.36
26563;BME280;14217;50.986;5.826;2022-08-19T21:57:34;100943.94;;;29.00;44.37
26563;BME280;14217;50.986;5.826;2022-08-19T22:02:36;100951.31;;;28.98;44.24
26563;BME280;14217;50.986;5.826;2022-08-19T22:07:38;100958.16;;;29.02;43.87
26563;BME280;14217;50.986;5.826;2022-08-19T22:12:43;100971.50;;;29.04;44.13
26563;BME280;14217;50.986;5.826;2022-08-19T22:17:52;100973.81;;;29.08;43.93
26563;BME280;14217;50.986;5.826;2022-08-19T22:22:58;100968.34;;;28.98;44.02
26563;BME280;14217;50.986;5.826;2022-08-19T22:28:03;100978.16;;;28.99;44.14
26563;BME280;14217;50.986;5.826;2022-08-19T22:33:09;100968.34;;;28.98;44.00
26563;BME280;14217;50.986;5.826;2022-08-19T22:38:12;100964.41;;;29.03;43.98
26563;BME280;14217;50.986;5.826;2022-08-19T22:43:18;100969.66;;;29.04;43.90
26563;BME280;14217;50.986;5.826;2022-08-19T22:48:22;100962.28;;;29.06;43.70
26563;BME280;14217;50.986;5.826;2022-08-19T22:53:25;100960.44;;;29.07;43.80
26563;BME280;14217;50.986;5.826;2022-08-19T22:58:27;100960.84;;;29.02;43.74
26563;BME280;14217;50.986;5.826;2022-08-19T23:03:30;100956.31;;;29.03;43.85
26563;BME280;14217;50.986;5.826;2022-08-19T23:08:34;100953.19;;;29.07;43.80
26563;BME280;14217;50.986;5.826;2022-08-19T23:13:39;100957.03;;;29.05;43.72
26563;BME280;14217;50.986;5.826;2022-08-19T23:18:41;100948.81;;;29.06;43.56
26563;BME280;14217;50.986;5.826;2022-08-19T23:23:43;100950.78;;;29.04;43.65
26563;BME280;14217;50.986;5.826;2022-08-19T23:28:45;100954.47;;;29.03;43.77
26563;BME280;14217;50.986;5.826;2022-08-19T23:34:06;100946.22;;;29.05;43.61
26563;BME280;14217;50.986;5.826;2022-08-19T23:39:08;100938.13;;;29.05;43.56
26563;BME280;14217;50.986;5.826;2022-08-19T23:44:10;100943.88;;;28.90;44.49
26563;BME280;14217;50.986;5.826;2022-08-19T23:49:15;100940.13;;;28.72;46.27
26563;BME280;14217;50.986;5.826;2022-08-19T23:54:17;100949.56;;;28.66;46.93
26563;BME280;14217;50.986;5.826;2022-08-19T23:59:19;100931.31;;;28.70;47.96
